ROVUS YBNA-YSSY
Flight info
| Callsign | ROVUS |
|---|---|
| Flight time | 0h 59m |
| Altitude | 20000 |
| Route | BNA W494 IDNER/N0460F400 H98 SANAD H91 IGDAM H652 BOREE |
| Aircraft | CL60/M-SADE3FGHIJ3J4J7P2RWXY/HB1D1 |
Departure
| Time | 2026-05-06 15:15 |
|---|---|
| Airport | Ballina Byron Gateway Airport (YBNA) |
Arrival
| Time | 2026-05-06 16:15 |
|---|---|
| Airport | Sydney Kingsford Smith International Airport (YSSY) |
| Time | Latitude | Longitude | Altitude | Speed | Heading |
|---|---|---|---|---|---|
| 2026-05-06 14:50 | -28.83623 | 153.55432 | 20 ft | 0 kts | 69° |
| 2026-05-06 15:09 | -28.83621 | 153.55440 | 20 ft | 3 kts | 69° |
| 2026-05-06 15:10 | -28.83610 | 153.55478 | 21 ft | 4 kts | 75° |
| 2026-05-06 15:10 | -28.83596 | 153.55501 | 21 ft | 4 kts | 349° |
| 2026-05-06 15:10 | -28.83578 | 153.55496 | 20 ft | 0 kts | 342° |
| 2026-05-06 15:12 | -28.83548 | 153.55486 | 19 ft | 11 kts | 343° |
| 2026-05-06 15:12 | -28.83483 | 153.55530 | 19 ft | 14 kts | 71° |
| 2026-05-06 15:13 | -28.83447 | 153.55658 | 18 ft | 18 kts | 73° |
| 2026-05-06 15:13 | -28.83406 | 153.55820 | 18 ft | 23 kts | 73° |
| 2026-05-06 15:13 | -28.83352 | 153.56030 | 17 ft | 30 kts | 73° |
| 2026-05-06 15:13 | -28.83290 | 153.56270 | 17 ft | 32 kts | 71° |
| 2026-05-06 15:14 | -28.83221 | 153.56520 | 19 ft | 31 kts | 71° |
| 2026-05-06 15:14 | -28.83166 | 153.56738 | 20 ft | 28 kts | 74° |
| 2026-05-06 15:14 | -28.83116 | 153.56931 | 18 ft | 11 kts | 73° |
| 2026-05-06 15:14 | -28.83084 | 153.57001 | 18 ft | 8 kts | 47° |
| 2026-05-06 15:15 | -28.83091 | 153.57025 | 18 ft | 8 kts | 233° |
| 2026-05-06 15:15 | -28.83133 | 153.56863 | 19 ft | 59 kts | 255° |
| 2026-05-06 15:15 | -28.83368 | 153.55972 | 32 ft | 165 kts | 255° |
| 2026-05-06 15:15 | -28.83703 | 153.54631 | 945 ft | 189 kts | 256° |
| 2026-05-06 15:16 | -28.84075 | 153.53055 | 1915 ft | 220 kts | 256° |
| 2026-05-06 15:16 | -28.84387 | 153.51320 | 2803 ft | 224 kts | 267° |
| 2026-05-06 15:16 | -28.84464 | 153.49501 | 3710 ft | 233 kts | 269° |
| 2026-05-06 15:16 | -28.84536 | 153.47533 | 4774 ft | 260 kts | 268° |
| 2026-05-06 15:17 | -28.84618 | 153.45509 | 6325 ft | 264 kts | 268° |
| 2026-05-06 15:17 | -28.84710 | 153.43431 | 7916 ft | 266 kts | 268° |
| 2026-05-06 15:17 | -28.84816 | 153.41348 | 9481 ft | 267 kts | 268° |
| 2026-05-06 15:17 | -28.84935 | 153.39241 | 10910 ft | 272 kts | 268° |
| 2026-05-06 15:18 | -28.85067 | 153.37085 | 12250 ft | 278 kts | 268° |
| 2026-05-06 15:18 | -28.85219 | 153.34888 | 13507 ft | 285 kts | 269° |
| 2026-05-06 15:18 | -28.85386 | 153.32638 | 14753 ft | 290 kts | 269° |
| 2026-05-06 15:18 | -28.85559 | 153.30336 | 15950 ft | 294 kts | 269° |
| 2026-05-06 15:19 | -28.85735 | 153.27979 | 17031 ft | 300 kts | 269° |
| 2026-05-06 15:19 | -28.85911 | 153.25630 | 18086 ft | 305 kts | 269° |
| 2026-05-06 15:19 | -28.86094 | 153.23202 | 19153 ft | 308 kts | 269° |
| 2026-05-06 15:19 | -28.86278 | 153.20769 | 20241 ft | 308 kts | 269° |
| 2026-05-06 15:20 | -28.86463 | 153.18321 | 21274 ft | 309 kts | 269° |
| 2026-05-06 15:20 | -28.86647 | 153.15884 | 22211 ft | 311 kts | 269° |
| 2026-05-06 15:20 | -28.86833 | 153.13420 | 23158 ft | 312 kts | 269° |
| 2026-05-06 15:20 | -28.87018 | 153.10956 | 24109 ft | 314 kts | 269° |
| 2026-05-06 15:21 | -28.87250 | 153.08473 | 25024 ft | 319 kts | 264° |
| 2026-05-06 15:21 | -28.87980 | 153.06023 | 25874 ft | 333 kts | 250° |
| 2026-05-06 15:21 | -28.89377 | 153.03863 | 26675 ft | 352 kts | 232° |
| 2026-05-06 15:21 | -28.91467 | 153.02208 | 27500 ft | 369 kts | 218° |
| 2026-05-06 15:22 | -28.93744 | 153.00777 | 28219 ft | 374 kts | 218° |
| 2026-05-06 15:22 | -28.96029 | 152.99338 | 28954 ft | 377 kts | 219° |
| 2026-05-06 15:22 | -28.98371 | 152.97856 | 29554 ft | 383 kts | 219° |
| 2026-05-06 15:22 | -29.00701 | 152.96382 | 30172 ft | 385 kts | 219° |
| 2026-05-06 15:23 | -29.03105 | 152.94861 | 30716 ft | 389 kts | 220° |
| 2026-05-06 15:23 | -29.05479 | 152.93359 | 31352 ft | 388 kts | 221° |
| 2026-05-06 15:23 | -29.07859 | 152.91855 | 32003 ft | 387 kts | 221° |
| 2026-05-06 15:23 | -29.10203 | 152.90370 | 32526 ft | 388 kts | 222° |
| 2026-05-06 15:24 | -29.12619 | 152.88837 | 33040 ft | 388 kts | 223° |
| 2026-05-06 15:24 | -29.15025 | 152.87308 | 33532 ft | 390 kts | 223° |
| 2026-05-06 15:24 | -29.17420 | 152.85783 | 34000 ft | 392 kts | 223° |
| 2026-05-06 15:24 | -29.19803 | 152.84270 | 34545 ft | 392 kts | 223° |
| 2026-05-06 15:25 | -29.22218 | 152.82733 | 35098 ft | 391 kts | 223° |
| 2026-05-06 15:25 | -29.24576 | 152.81239 | 35857 ft | 384 kts | 224° |
| 2026-05-06 15:25 | -29.26929 | 152.79744 | 36424 ft | 381 kts | 224° |
| 2026-05-06 15:25 | -29.29221 | 152.78285 | 37009 ft | 377 kts | 224° |
| 2026-05-06 15:26 | -29.31531 | 152.76813 | 37481 ft | 375 kts | 225° |
| 2026-05-06 15:26 | -29.33837 | 152.75339 | 37853 ft | 376 kts | 225° |
| 2026-05-06 15:26 | -29.36152 | 152.73859 | 38186 ft | 376 kts | 225° |
| 2026-05-06 15:26 | -29.38435 | 152.72397 | 38510 ft | 377 kts | 225° |
| 2026-05-06 15:27 | -29.40739 | 152.70924 | 38906 ft | 375 kts | 225° |
| 2026-05-06 15:27 | -29.43038 | 152.69455 | 39314 ft | 373 kts | 225° |
| 2026-05-06 15:27 | -29.45312 | 152.67996 | 39588 ft | 374 kts | 225° |
| 2026-05-06 15:27 | -29.47578 | 152.66542 | 39796 ft | 376 kts | 225° |
| 2026-05-06 15:28 | -29.49898 | 152.65050 | 40003 ft | 377 kts | 225° |
| 2026-05-06 15:28 | -29.54584 | 152.62032 | 40067 ft | 389 kts | 224° |
| 2026-05-06 15:29 | -29.59392 | 152.58933 | 40066 ft | 400 kts | 224° |
| 2026-05-06 15:29 | -29.64381 | 152.55718 | 40072 ft | 411 kts | 224° |
| 2026-05-06 15:30 | -29.69439 | 152.52460 | 40066 ft | 419 kts | 224° |
| 2026-05-06 15:30 | -29.74593 | 152.49138 | 40078 ft | 425 kts | 223° |
| 2026-05-06 15:31 | -29.79803 | 152.45783 | 40074 ft | 426 kts | 223° |
| 2026-05-06 15:31 | -29.85068 | 152.42386 | 40090 ft | 426 kts | 223° |
| 2026-05-06 15:32 | -29.92862 | 152.37349 | 40082 ft | 426 kts | 223° |
| 2026-05-06 15:32 | -29.98088 | 152.33966 | 40092 ft | 427 kts | 224° |
| 2026-05-06 15:33 | -30.03290 | 152.30592 | 40087 ft | 427 kts | 223° |
| 2026-05-06 15:33 | -30.08515 | 152.27203 | 40093 ft | 424 kts | 223° |
| 2026-05-06 15:34 | -30.13673 | 152.23850 | 40092 ft | 423 kts | 223° |
| 2026-05-06 15:34 | -30.18844 | 152.20482 | 40101 ft | 424 kts | 223° |
| 2026-05-06 15:35 | -30.24032 | 152.17097 | 40093 ft | 426 kts | 223° |
| 2026-05-06 15:35 | -30.29214 | 152.13715 | 40096 ft | 426 kts | 223° |
| 2026-05-06 15:36 | -30.34403 | 152.10324 | 40110 ft | 426 kts | 223° |
| 2026-05-06 15:36 | -30.39560 | 152.06950 | 40103 ft | 426 kts | 223° |
| 2026-05-06 15:37 | -30.44774 | 152.03534 | 40096 ft | 426 kts | 223° |
| 2026-05-06 15:37 | -30.49941 | 152.00143 | 40093 ft | 427 kts | 223° |
| 2026-05-06 15:38 | -30.55162 | 151.96713 | 40091 ft | 428 kts | 223° |
| 2026-05-06 15:38 | -30.60385 | 151.93278 | 40095 ft | 428 kts | 223° |
| 2026-05-06 15:39 | -30.65655 | 151.89809 | 40087 ft | 428 kts | 223° |
| 2026-05-06 15:39 | -30.70879 | 151.86365 | 40088 ft | 429 kts | 222° |
| 2026-05-06 15:40 | -30.76081 | 151.82930 | 40099 ft | 429 kts | 223° |
| 2026-05-06 15:40 | -30.81321 | 151.79466 | 40103 ft | 430 kts | 222° |
| 2026-05-06 15:41 | -30.86612 | 151.75963 | 40105 ft | 431 kts | 222° |
| 2026-05-06 15:41 | -30.91913 | 151.72450 | 40106 ft | 432 kts | 222° |
| 2026-05-06 15:42 | -30.97185 | 151.68951 | 40103 ft | 433 kts | 222° |
| 2026-05-06 15:42 | -31.02440 | 151.65462 | 40109 ft | 433 kts | 222° |
| 2026-05-06 15:43 | -31.07676 | 151.61978 | 40105 ft | 432 kts | 222° |
| 2026-05-06 15:43 | -31.12944 | 151.58470 | 40107 ft | 432 kts | 222° |
| 2026-05-06 15:44 | -31.18199 | 151.54964 | 40097 ft | 432 kts | 222° |
| 2026-05-06 15:44 | -31.23439 | 151.51463 | 40097 ft | 433 kts | 221° |
| 2026-05-06 15:45 | -31.28738 | 151.47920 | 40096 ft | 432 kts | 221° |
| 2026-05-06 15:45 | -31.33960 | 151.44421 | 40084 ft | 434 kts | 221° |
| 2026-05-06 15:46 | -31.39310 | 151.40990 | 40092 ft | 443 kts | 216° |
| 2026-05-06 15:46 | -31.45189 | 151.38315 | 40092 ft | 449 kts | 212° |
| 2026-05-06 15:47 | -31.51071 | 151.35698 | 40093 ft | 449 kts | 212° |
| 2026-05-06 15:47 | -31.57004 | 151.33052 | 40089 ft | 450 kts | 212° |
| 2026-05-06 15:48 | -31.62893 | 151.30421 | 40079 ft | 449 kts | 212° |
| 2026-05-06 15:48 | -31.68769 | 151.27791 | 40084 ft | 448 kts | 212° |
| 2026-05-06 15:49 | -31.74618 | 151.25166 | 40068 ft | 448 kts | 212° |
| 2026-05-06 15:49 | -31.80517 | 151.22516 | 40065 ft | 448 kts | 212° |
| 2026-05-06 15:50 | -31.86413 | 151.19861 | 40062 ft | 449 kts | 212° |
| 2026-05-06 15:50 | -31.92282 | 151.17215 | 40059 ft | 450 kts | 212° |
| 2026-05-06 15:51 | -31.98202 | 151.14558 | 40067 ft | 449 kts | 211° |
| 2026-05-06 15:51 | -32.04089 | 151.11920 | 39758 ft | 446 kts | 211° |
| 2026-05-06 15:52 | -32.07008 | 151.10614 | 39227 ft | 443 kts | 212° |
| 2026-05-06 15:52 | -32.09895 | 151.09320 | 38637 ft | 441 kts | 211° |
| 2026-05-06 15:52 | -32.12677 | 151.08072 | 38109 ft | 436 kts | 211° |
| 2026-05-06 15:52 | -32.15583 | 151.06766 | 37493 ft | 434 kts | 211° |
| 2026-05-06 15:53 | -32.18418 | 151.05492 | 36932 ft | 429 kts | 211° |
| 2026-05-06 15:53 | -32.21217 | 151.04233 | 36348 ft | 426 kts | 211° |
| 2026-05-06 15:53 | -32.23975 | 151.02992 | 35816 ft | 422 kts | 211° |
| 2026-05-06 15:53 | -32.26745 | 151.01743 | 35250 ft | 422 kts | 211° |
| 2026-05-06 15:54 | -32.29507 | 151.00493 | 34668 ft | 422 kts | 210° |
| 2026-05-06 15:54 | -32.32265 | 150.99248 | 34109 ft | 421 kts | 210° |
| 2026-05-06 15:54 | -32.35087 | 150.97972 | 33505 ft | 420 kts | 210° |
| 2026-05-06 15:54 | -32.37852 | 150.96722 | 32957 ft | 417 kts | 210° |
| 2026-05-06 15:55 | -32.40589 | 150.95483 | 32391 ft | 415 kts | 210° |
| 2026-05-06 15:55 | -32.43296 | 150.94260 | 31849 ft | 413 kts | 210° |
| 2026-05-06 15:55 | -32.46060 | 150.93132 | 31280 ft | 416 kts | 204° |
| 2026-05-06 15:55 | -32.48956 | 150.92378 | 30705 ft | 421 kts | 197° |
| 2026-05-06 15:56 | -32.51925 | 150.92055 | 30119 ft | 427 kts | 189° |
| 2026-05-06 15:56 | -32.54947 | 150.92181 | 29512 ft | 433 kts | 181° |
| 2026-05-06 15:56 | -32.57978 | 150.92677 | 28943 ft | 432 kts | 178° |
| 2026-05-06 15:56 | -32.61005 | 150.93219 | 28357 ft | 430 kts | 178° |
| 2026-05-06 15:57 | -32.63962 | 150.93744 | 27767 ft | 428 kts | 178° |
| 2026-05-06 15:57 | -32.66949 | 150.94275 | 27181 ft | 425 kts | 177° |
| 2026-05-06 15:57 | -32.69879 | 150.94797 | 26628 ft | 422 kts | 177° |
| 2026-05-06 15:57 | -32.72776 | 150.95312 | 26057 ft | 419 kts | 177° |
| 2026-05-06 15:58 | -32.75711 | 150.95834 | 25491 ft | 415 kts | 177° |
| 2026-05-06 15:58 | -32.78611 | 150.96352 | 24948 ft | 411 kts | 177° |
| 2026-05-06 15:58 | -32.81479 | 150.96861 | 24375 ft | 412 kts | 176° |
| 2026-05-06 15:58 | -32.84360 | 150.97371 | 23849 ft | 419 kts | 176° |
| 2026-05-06 15:59 | -32.87300 | 150.97893 | 23291 ft | 420 kts | 176° |
| 2026-05-06 15:59 | -32.90266 | 150.98421 | 22685 ft | 427 kts | 176° |
| 2026-05-06 15:59 | -32.93341 | 150.98962 | 22106 ft | 449 kts | 175° |
| 2026-05-06 15:59 | -32.96451 | 150.99515 | 21493 ft | 459 kts | 175° |
| 2026-05-06 16:00 | -32.99647 | 151.00087 | 20846 ft | 456 kts | 175° |
| 2026-05-06 16:00 | -33.02819 | 151.00656 | 20256 ft | 451 kts | 175° |
| 2026-05-06 16:00 | -33.05978 | 151.01224 | 19641 ft | 446 kts | 175° |
| 2026-05-06 16:00 | -33.09075 | 151.01781 | 19058 ft | 441 kts | 175° |
| 2026-05-06 16:01 | -33.12145 | 151.02331 | 18437 ft | 437 kts | 174° |
| 2026-05-06 16:01 | -33.15181 | 151.02876 | 17848 ft | 433 kts | 174° |
| 2026-05-06 16:01 | -33.18153 | 151.03410 | 17287 ft | 430 kts | 174° |
| 2026-05-06 16:01 | -33.21130 | 151.03946 | 16715 ft | 426 kts | 174° |
| 2026-05-06 16:02 | -33.24112 | 151.04480 | 16124 ft | 431 kts | 174° |
| 2026-05-06 16:02 | -33.27117 | 151.05022 | 15559 ft | 435 kts | 174° |
| 2026-05-06 16:02 | -33.30125 | 151.05576 | 14998 ft | 433 kts | 174° |
| 2026-05-06 16:02 | -33.33103 | 151.06134 | 14430 ft | 430 kts | 173° |
| 2026-05-06 16:03 | -33.36117 | 151.06712 | 13879 ft | 427 kts | 173° |
| 2026-05-06 16:03 | -33.39099 | 151.07295 | 13316 ft | 423 kts | 173° |
| 2026-05-06 16:03 | -33.42030 | 151.07872 | 12751 ft | 420 kts | 173° |
| 2026-05-06 16:03 | -33.44960 | 151.08443 | 12141 ft | 416 kts | 173° |
| 2026-05-06 16:04 | -33.47831 | 151.09003 | 11562 ft | 411 kts | 173° |
| 2026-05-06 16:04 | -33.50659 | 151.09554 | 11030 ft | 408 kts | 173° |
| 2026-05-06 16:04 | -33.53493 | 151.10106 | 10461 ft | 404 kts | 173° |
| 2026-05-06 16:04 | -33.56290 | 151.10652 | 9914 ft | 400 kts | 173° |
| 2026-05-06 16:05 | -33.59064 | 151.11194 | 9375 ft | 397 kts | 173° |
| 2026-05-06 16:05 | -33.61829 | 151.11732 | 8861 ft | 396 kts | 173° |
| 2026-05-06 16:05 | -33.64600 | 151.12279 | 8320 ft | 395 kts | 173° |
| 2026-05-06 16:05 | -33.67337 | 151.12831 | 7856 ft | 388 kts | 172° |
| 2026-05-06 16:06 | -33.69875 | 151.13362 | 8076 ft | 351 kts | 172° |
| 2026-05-06 16:06 | -33.72348 | 151.13892 | 7813 ft | 350 kts | 172° |
| 2026-05-06 16:06 | -33.74703 | 151.14432 | 7513 ft | 334 kts | 169° |
| 2026-05-06 16:06 | -33.76828 | 151.15637 | 7066 ft | 340 kts | 146° |
| 2026-05-06 16:07 | -33.78846 | 151.17236 | 6972 ft | 344 kts | 152° |
| 2026-05-06 16:07 | -33.80996 | 151.18674 | 6969 ft | 347 kts | 153° |
| 2026-05-06 16:07 | -33.83155 | 151.20093 | 6797 ft | 349 kts | 153° |
| 2026-05-06 16:07 | -33.85311 | 151.21506 | 6526 ft | 346 kts | 153° |
| 2026-05-06 16:08 | -33.87455 | 151.22910 | 6265 ft | 345 kts | 153° |
| 2026-05-06 16:08 | -33.89601 | 151.24313 | 5917 ft | 343 kts | 153° |
| 2026-05-06 16:08 | -33.91685 | 151.25678 | 5575 ft | 340 kts | 153° |
| 2026-05-06 16:08 | -33.93808 | 151.27058 | 5179 ft | 338 kts | 153° |
| 2026-05-06 16:09 | -33.95871 | 151.28400 | 4709 ft | 335 kts | 153° |
| 2026-05-06 16:09 | -33.97948 | 151.29753 | 4257 ft | 331 kts | 153° |
| 2026-05-06 16:09 | -34.00075 | 151.30902 | 3851 ft | 328 kts | 160° |
| 2026-05-06 16:09 | -34.02232 | 151.31950 | 3444 ft | 326 kts | 160° |
| 2026-05-06 16:10 | -34.04361 | 151.32980 | 3037 ft | 325 kts | 160° |
| 2026-05-06 16:10 | -34.06455 | 151.34007 | 2525 ft | 325 kts | 160° |
| 2026-05-06 16:10 | -34.08532 | 151.35036 | 2083 ft | 309 kts | 162° |
| 2026-05-06 16:10 | -34.10562 | 151.35422 | 1988 ft | 276 kts | 190° |
| 2026-05-06 16:11 | -34.12287 | 151.34607 | 1982 ft | 254 kts | 223° |
| 2026-05-06 16:11 | -34.13295 | 151.32883 | 1971 ft | 249 kts | 254° |
| 2026-05-06 16:11 | -34.13437 | 151.30775 | 1960 ft | 248 kts | 276° |
| 2026-05-06 16:11 | -34.12773 | 151.28867 | 1971 ft | 251 kts | 308° |
| 2026-05-06 16:12 | -34.11371 | 151.27533 | 1964 ft | 255 kts | 323° |
| 2026-05-06 16:12 | -34.10001 | 151.26137 | 1959 ft | 252 kts | 311° |
| 2026-05-06 16:12 | -34.08789 | 151.24559 | 1960 ft | 253 kts | 315° |
| 2026-05-06 16:12 | -34.07263 | 151.23460 | 1961 ft | 258 kts | 333° |
| 2026-05-06 16:13 | -34.05611 | 151.22650 | 1971 ft | 244 kts | 335° |
| 2026-05-06 16:13 | -34.04079 | 151.21930 | 1961 ft | 224 kts | 335° |
| 2026-05-06 16:13 | -34.02598 | 151.21213 | 1400 ft | 230 kts | 335° |
| 2026-05-06 16:13 | -34.01073 | 151.20558 | 949 ft | 225 kts | 340° |
| 2026-05-06 16:14 | -33.99651 | 151.20077 | 641 ft | 194 kts | 343° |
| 2026-05-06 16:14 | -33.98444 | 151.19743 | 329 ft | 164 kts | 346° |
| 2026-05-06 16:14 | -33.97442 | 151.19478 | 86 ft | 129 kts | 346° |
| 2026-05-06 16:14 | -33.96636 | 151.19270 | 25 ft | 104 kts | 345° |
| 2026-05-06 16:15 | -33.96011 | 151.19106 | 25 ft | 81 kts | 347° |
| 2026-05-06 16:15 | -33.95519 | 151.18977 | 24 ft | 52 kts | 346° |
| 2026-05-06 16:15 | -33.95261 | 151.18817 | 24 ft | 31 kts | 319° |
| 2026-05-06 16:15 | -33.95183 | 151.18735 | 24 ft | 8 kts | 319° |
| 2026-05-06 16:16 | -33.95125 | 151.18671 | 24 ft | 9 kts | 316° |
| 2026-05-06 16:16 | -33.95092 | 151.18597 | 24 ft | 13 kts | 264° |
| 2026-05-06 16:16 | -33.95114 | 151.18454 | 24 ft | 21 kts | 258° |
| 2026-05-06 16:16 | -33.95147 | 151.18265 | 24 ft | 24 kts | 257° |
| 2026-05-06 16:17 | -33.95172 | 151.18131 | 24 ft | 3 kts | 258° |
| 2026-05-06 16:17 | -33.95177 | 151.18102 | 24 ft | 0 kts | 259° |
| 2026-05-06 16:18 | -33.95177 | 151.18100 | 24 ft | 1 kts | 259° |
| 2026-05-06 16:18 | -33.95185 | 151.18051 | 24 ft | 8 kts | 257° |
| 2026-05-06 16:18 | -33.95172 | 151.17970 | 24 ft | 11 kts | 321° |
| 2026-05-06 16:18 | -33.95084 | 151.17941 | 24 ft | 15 kts | 348° |
| 2026-05-06 16:19 | -33.94967 | 151.17912 | 24 ft | 18 kts | 348° |
| 2026-05-06 16:19 | -33.94826 | 151.17874 | 24 ft | 22 kts | 347° |
| 2026-05-06 16:19 | -33.94679 | 151.17836 | 24 ft | 10 kts | 348° |
| 2026-05-06 16:19 | -33.94656 | 151.17830 | 24 ft | 0 kts | 348° |
| 2026-05-06 16:20 | -33.94640 | 151.17809 | 24 ft | 6 kts | 301° |
| 2026-05-06 16:20 | -33.94628 | 151.17763 | 24 ft | 5 kts | 290° |
| 2026-05-06 16:20 | -33.94587 | 151.17740 | 24 ft | 7 kts | 358° |
| 2026-05-06 16:21 | -33.94497 | 151.17770 | 24 ft | 20 kts | 12° |
| 2026-05-06 16:21 | -33.94357 | 151.17746 | 24 ft | 19 kts | 349° |
| 2026-05-06 16:21 | -33.94215 | 151.17702 | 24 ft | 22 kts | 345° |
| 2026-05-06 16:21 | -33.94054 | 151.17651 | 24 ft | 25 kts | 348° |
| 2026-05-06 16:22 | -33.93905 | 151.17621 | 24 ft | 17 kts | 7° |
| 2026-05-06 16:22 | -33.93846 | 151.17750 | 24 ft | 20 kts | 74° |
| 2026-05-06 16:22 | -33.93803 | 151.17937 | 24 ft | 24 kts | 75° |
| 2026-05-06 16:22 | -33.93752 | 151.18155 | 24 ft | 28 kts | 74° |
| 2026-05-06 16:23 | -33.93697 | 151.18393 | 24 ft | 31 kts | 75° |
| 2026-05-06 16:23 | -33.93635 | 151.18655 | 24 ft | 34 kts | 73° |
| 2026-05-06 16:23 | -33.93593 | 151.18851 | 24 ft | 8 kts | 93° |
| 2026-05-06 16:23 | -33.93601 | 151.18918 | 24 ft | 10 kts | 83° |
| 2026-05-06 16:24 | -33.93580 | 151.19011 | 24 ft | 10 kts | 72° |
| 2026-05-06 16:24 | -33.93543 | 151.19052 | 24 ft | 8 kts | 359° |
| 2026-05-06 16:24 | -33.93506 | 151.19043 | 24 ft | 0 kts | 342° |